x

Ilm3 - 27 Miles Se Of Wrightsville Beach, Nc (41037) Weather Station

4:08am - Sun 19th Nov 2017 All times are EST. -5 hours from GMT.

  • Wind
    29mph, 43mph gusts
  • Sea Temp 68°f
  • Air Temp 71°f
  • Sea Pressure 1004.2mb
  • Ilm3 - 27 Miles Se Of Wrightsville Beach, Nc
  • Ilm3 - 27 Miles Se Of Wrightsville Beach, Nc

More Historic Weather Station data

Upgrade to MSW Pro to gain access to the past 30 days of data for over 8000 Wavebouys and Weather Stations around the globe.

Join

Comparision Forecast

View Surf forecast
   
Sun 11/19 4:08am 29 43 mph 1004.2mb 68f 71f
3:08am 27 40 mph 1005.4mb 67f 70f
2:08am 31 43 mph 1005.9mb 67f 71f
1:08am 27 38 mph 1006.8mb 67f 70f
Sat 11/18 11:08pm 20 29 mph 1008.7mb 67f 69f
10:08pm 20 29 mph 1009.3mb 67f 69f
9:08pm 20 29 mph 1010mb 67f 69f
8:08pm 18 27 mph 1010.5mb 67f 69f
7:08pm 18 27 mph 1010.4mb 67f 69f
6:08pm 18 29 mph 1010.1mb 67f 70f
5:08pm 18 25 mph 1010.5mb 67f 70f
4:08pm 18 25 mph 1010.8mb 67f 69f
3:08pm 18 27 mph 1011.7mb 67f 70f
2:08pm 13 20 mph 1012.7mb 67f 68f
1:08pm 11 13 mph 1014.2mb 67f 67f
12:08pm 9 11 mph 1015.6mb 67f 65f
11:08am 7 9 mph 1017mb 67f 64f
10:08am 4 9 mph 1017.6mb 67f 64f
9:08am 2 4 mph 1018mb 67f 65f
8:08am 2 7 mph 1018.1mb 67f 63f
7:08am 2 7 mph 1018.6mb 67f 61f
6:08am 4 9 mph 1018.5mb 67f 60f
5:08am 4 9 mph 1018.7mb 67f 60f
4:08am 7 11 mph 1018.8mb 67f 60f
3:08am 4 9 mph 1019.4mb 67f 60f
2:08am 4 11 mph 1019.6mb 67f 60f
1:08am 4 9 mph 1020.1mb 67f 59f
12:08am 2 7 mph 1020.7mb 67f 59f
Fri 11/17 11:08pm 7 11 mph 1021.1mb 68f 58f
10:08pm 7 13 mph 1021.2mb 68f 58f
9:08pm 11 18 mph 1020.9mb 68f 58f
8:08pm 9 16 mph 1021mb 68f 57f
7:08pm 7 13 mph 1021.5mb 68f 57f
6:08pm 4 11 mph 1021.3mb 68f 56f
5:08pm 11 16 mph 1020.7mb 68f 56f
4:08pm 7 13 mph 1020.8mb 68f 56f
3:08pm 9 16 mph 1020.8mb 68f 56f
2:08pm 11 20 mph 1020.9mb 68f 55f
1:08pm 13 25 mph 1021.1mb 68f 54f
12:08pm 16 25 mph 1021.7mb 68f 54f
11:08am 20 29 mph 1022.5mb 68f 54f
10:08am 22 31 mph 1022.3mb 68f 55f
9:08am 25 34 mph 1022.3mb 68f 55f
8:08am 25 36 mph 1022mb 68f 55f
7:08am 27 36 mph 1020.8mb 68f 55f
6:08am 27 38 mph 1020.3mb 68f 57f
5:08am 25 34 mph 1019.4mb 68f 58f
4:08am 25 34 mph 1018.9mb 68f 59f
3:08am 25 34 mph 1018.7mb 68f 61f
2:08am 25 36 mph 1018.3mb 68f 63f
1:08am 16 22 mph 1017.6mb 68f 64f
12:08am 13 20 mph 1017.7mb 68f 65f
Thu 11/16 11:08pm 13 20 mph 1017.4mb 68f 65f
10:08pm 11 20 mph 1017.3mb 68f 65f
9:08pm 13 20 mph 1017.2mb 68f 65f
8:08pm 16 22 mph 1016.5mb 68f 66f
7:08pm 13 20 mph 1016.1mb 68f 66f
6:08pm 11 20 mph 1015.4mb 68f 65f
5:08pm 9 16 mph 1014.7mb 68f 64f
4:08pm 11 16 mph 1014.4mb 68f 65f
3:08pm 7 13 mph 1014.2mb 68f 63f
2:08pm 9 16 mph 1014.5mb 68f 61f
12:08pm 16 25 mph 1015.8mb 68f 59f
11:08am 18 27 mph 1017.1mb 68f 58f
10:08am 18 27 mph 1017.4mb 68f 57f
8:08am 20 29 mph 1016.7mb 69f 56f
7:08am 20 29 mph 1016.2mb 69f 56f
6:08am 18 27 mph 1015.7mb 69f 56f
5:08am 22 29 mph 1015.6mb 69f 57f
4:08am 18 27 mph 1015.4mb 69f 57f
3:08am 22 34 mph 1015.7mb 69f 57f
2:08am 18 22 mph 1015.9mb 69f 58f
1:08am 18 25 mph 1016.1mb 69f 59f
12:08am 11 16 mph 1016.2mb 69f 60f
Wed 11/15 11:08pm 13 20 mph 1016.7mb 69f 60f
10:08pm 16 20 mph 1017.5mb 69f 60f
9:08pm 16 22 mph 1017.5mb 69f 61f
8:08pm 16 25 mph 1017.5mb 69f 61f
7:08pm 16 25 mph 1017.3mb 69f 61f
6:08pm 18 25 mph 1017.3mb 70f 61f
5:08pm 16 22 mph 1017.5mb 69f 60f
4:08pm 16 22 mph 1017.4mb 70f 59f
3:08pm 16 22 mph 1017.5mb 69f 59f
2:08pm 18 25 mph 1017.3mb 69f 58f
1:08pm 4 16 mph 1017.9mb 69f 57f
12:08pm 16 25 mph 1019mb 70f 56f
11:08am 20 27 mph 1020.4mb 70f 54f